Time;durP1;ratioP1;P1;durP2;ratioP2;P2;SDS_P1;SDS_P2;PMS_P1;PMS_P2;Temp;Humidity;BMP_temperature;BMP_pressure;BME280_temperature;BME280_humidity;BME280_pressure;Samples;Min_cycle;Max_cycle;Signal;HPM_P1;HPM_P2
2022/12/28 00:01:24;;;;;;;;;;;8.50;99.90;;;;;;7342452;19;113523;-88
2022/12/28 00:03:52;;;;;;;;;;;8.50;99.90;;;;;;7337842;19;109346;-87
2022/12/28 00:06:20;;;;;;;;;;;8.50;99.90;;;;;;7338602;19;109880;-88
2022/12/28 00:08:47;;;;;;;;;;;8.50;99.90;;;;;;7338247;19;108487;-88
2022/12/28 00:11:15;;;;;;;;;;;8.50;99.90;;;;;;7337702;19;108743;-89
2022/12/28 00:13:57;;;;;;;;;;;8.50;99.90;;;;;;7340462;19;110057;-88
2022/12/28 00:16:26;;;;;;;;;;;8.50;99.90;;;;;;7337447;19;111029;-88
2022/12/28 00:18:54;;;;;;;;;;;8.50;99.90;;;;;;7337684;19;109530;-88
2022/12/28 00:21:21;;;;;;;;;;;8.50;99.90;;;;;;7338058;19;110652;-89
2022/12/28 00:23:49;;;;;;;;;;;8.50;99.90;;;;;;7345645;19;111476;-88
2022/12/28 00:26:16;;;;;;;;;;;8.50;99.90;;;;;;7337359;19;110839;-88
2022/12/28 00:28:43;;;;;;;;;;;8.60;99.90;;;;;;7335215;19;108500;-89
2022/12/28 00:31:10;;;;;;;;;;;8.60;99.90;;;;;;7338425;19;111710;-88
2022/12/28 00:33:37;;;;;;;;;;;8.60;99.90;;;;;;7335978;19;110669;-88
2022/12/28 00:36:05;;;;;;;;;;;8.60;99.90;;;;;;7337977;19;108917;-88
2022/12/28 00:38:33;;;;;;;;;;;8.60;99.90;;;;;;7337085;19;109243;-88
2022/12/28 00:41:00;;;;;;;;;;;8.60;99.90;;;;;;7338014;19;113290;-89
2022/12/28 00:43:27;;;;;;;;;;;8.60;99.90;;;;;;7337849;19;109042;-89
2022/12/28 00:45:54;;;;;;;;;;;8.60;99.90;;;;;;7342305;19;109480;-89
2022/12/28 00:48:21;;;;;;;;;;;8.60;99.90;;;;;;7336701;19;109396;-88
2022/12/28 00:50:48;;;;;;;;;;;8.60;99.90;;;;;;7337526;19;110213;-88
2022/12/28 00:53:15;;;;;;;;;;;8.60;99.90;;;;;;7335969;19;110438;-88
2022/12/28 00:55:42;;;;;;;;;;;8.70;99.90;;;;;;7339735;19;109759;-88
2022/12/28 00:58:08;;;;;;;;;;;8.70;99.90;;;;;;7339170;19;109288;-88
2022/12/28 01:00:36;;;;;;;;;;;8.70;99.90;;;;;;7337056;19;110489;-88
2022/12/28 01:03:03;;;;;;;;;;;8.70;99.90;;;;;;7340676;19;108717;-88
2022/12/28 01:05:30;;;;;;;;;;;8.70;99.90;;;;;;7334978;19;109130;-89
2022/12/28 01:07:57;;;;;;;;;;;8.70;99.90;;;;;;7342613;19;111088;-88
2022/12/28 01:10:24;;;;;;;;;;;8.80;99.90;;;;;;7335164;19;109386;-89
2022/12/28 01:12:52;;;;;;;;;;;8.80;99.90;;;;;;7336491;19;113425;-89
2022/12/28 01:15:19;;;;;;;;;;;8.80;99.90;;;;;;7336667;19;108876;-89
2022/12/28 01:17:46;;;;;;;;;;;8.90;99.90;;;;;;7337629;19;109516;-89
2022/12/28 01:20:13;;;;;;;;;;;8.80;99.90;;;;;;7335691;19;109918;-88
2022/12/28 01:22:40;;;;;;;;;;;8.80;99.90;;;;;;7338779;19;109782;-89
2022/12/28 01:25:07;;;;;;;;;;;8.90;99.90;;;;;;7337425;19;112220;-88
2022/12/28 01:27:34;;;;;;;;;;;8.90;99.90;;;;;;7335055;19;111297;-88
2022/12/28 01:30:00;;;;;;;;;;;8.90;99.90;;;;;;7342563;19;108772;-88
2022/12/28 01:32:27;;;;;;;;;;;9.00;99.90;;;;;;7336986;19;113246;-88
2022/12/28 01:34:54;;;;;;;;;;;8.90;99.90;;;;;;7337184;19;109284;-89
2022/12/28 01:37:21;;;;;;;;;;;9.00;99.90;;;;;;7334882;19;111292;-89
2022/12/28 01:39:48;;;;;;;;;;;9.00;99.90;;;;;;7333587;19;110235;-88
2022/12/28 01:42:16;;;;;;;;;;;9.00;99.90;;;;;;7335458;19;108699;-88
2022/12/28 01:44:47;;;;;;;;;;;9.00;99.90;;;;;;7336664;19;110036;-89
2022/12/28 01:47:28;;;;;;;;;;;9.00;99.90;;;;;;7335153;19;110337;-88
2022/12/28 01:50:01;;;;;;;;;;;9.10;99.90;;;;;;7341001;19;109962;-88
2022/12/28 01:52:35;;;;;;;;;;;9.10;99.90;;;;;;7334707;19;112874;-88
2022/12/28 01:55:07;;;;;;;;;;;9.10;99.90;;;;;;7337369;19;109005;-89
2022/12/28 01:57:42;;;;;;;;;;;9.20;99.90;;;;;;7338154;19;109557;-90
2022/12/28 02:00:10;;;;;;;;;;;9.10;99.90;;;;;;7334958;19;109892;-88
2022/12/28 02:02:38;;;;;;;;;;;9.20;99.90;;;;;;7338997;19;108542;-88
2022/12/28 02:05:06;;;;;;;;;;;9.30;99.90;;;;;;7333847;19;108786;-89
2022/12/28 02:07:56;;;;;;;;;;;9.20;99.90;;;;;;7334193;19;110731;-89
2022/12/28 02:10:27;;;;;;;;;;;9.30;99.90;;;;;;7335535;19;118752;-88
2022/12/28 02:13:11;;;;;;;;;;;9.30;99.90;;;;;;7339839;19;109164;-88
2022/12/28 02:15:38;;;;;;;;;;;9.40;99.90;;;;;;7336750;19;109629;-89
2022/12/28 02:18:05;;;;;;;;;;;9.40;99.90;;;;;;7335133;19;108636;-88
2022/12/28 02:20:53;;;;;;;;;;;9.40;99.90;;;;;;7338115;19;110933;-89
2022/12/28 02:23:32;;;;;;;;;;;9.40;99.90;;;;;;7334446;19;108838;-89
2022/12/28 02:26:19;;;;;;;;;;;9.50;99.90;;;;;;7336708;19;109866;-89
2022/12/28 02:28:58;;;;;;;;;;;9.50;99.90;;;;;;7336386;19;109418;-90
2022/12/28 02:31:34;;;;;;;;;;;9.40;99.90;;;;;;7334643;19;108246;-89
2022/12/28 02:34:23;;;;;;;;;;;9.40;99.90;;;;;;7334822;19;109227;-89
2022/12/28 02:36:54;;;;;;;;;;;9.40;99.90;;;;;;7343599;19;109469;-88
2022/12/28 02:39:24;;;;;;;;;;;9.50;99.90;;;;;;7333078;19;110193;-89
2022/12/28 02:41:52;;;;;;;;;;;9.50;99.90;;;;;;7334722;19;110280;-89
2022/12/28 02:50:04;;;;;;;;;;;9.50;99.90;;;;;;7335579;19;108882;-89
2022/12/28 02:50:07;;;;;;;;;;;9.50;99.90;;;;;;7335426;19;109580;-89
2022/12/28 02:52:40;;;;;;;;;;;9.50;99.90;;;;;;7335769;19;108527;-90
2022/12/28 02:58:21;;;;;;;;;;;9.50;99.90;;;;;;7335517;19;110448;-89
2022/12/28 03:00:51;;;;;;;;;;;9.60;99.90;;;;;;7343341;19;108985;-89
2022/12/28 03:03:18;;;;;;;;;;;9.60;99.90;;;;;;7337799;19;110292;-88
2022/12/28 03:08:53;;;;;;;;;;;9.50;99.90;;;;;;7339015;19;109984;-90
2022/12/28 03:11:24;;;;;;;;;;;9.50;99.90;;;;;;7337610;19;113809;-89
2022/12/28 03:14:19;;;;;;;;;;;9.60;99.90;;;;;;7338266;19;108391;-88
2022/12/28 03:31:04;;;;;;;;;;;9.70;99.90;;;;;;7338205;19;110230;-88
2022/12/28 03:33:33;;;;;;;;;;;9.80;99.90;;;;;;7337568;19;111013;-89
2022/12/28 03:36:00;;;;;;;;;;;9.80;99.90;;;;;;7340473;19;109683;-90
2022/12/28 03:38:30;;;;;;;;;;;9.80;99.90;;;;;;7342448;19;109847;-91
2022/12/28 03:41:04;;;;;;;;;;;9.90;99.90;;;;;;7340535;19;111225;-88
2022/12/28 03:43:44;;;;;;;;;;;9.90;99.90;;;;;;7337904;19;108543;-88
2022/12/28 03:46:16;;;;;;;;;;;9.90;99.90;;;;;;7340398;19;109661;-88
2022/12/28 03:48:44;;;;;;;;;;;9.90;99.90;;;;;;7346879;19;110449;-90
2022/12/28 03:51:13;;;;;;;;;;;9.90;99.90;;;;;;7341497;19;109757;-89
2022/12/28 03:53:42;;;;;;;;;;;10.00;99.90;;;;;;7341296;19;110033;-88
2022/12/28 03:56:10;;;;;;;;;;;9.90;99.90;;;;;;7342813;19;109548;-89
2022/12/28 03:58:37;;;;;;;;;;;10.10;99.90;;;;;;7340439;19;109217;-88
2022/12/28 04:01:07;;;;;;;;;;;10.10;99.90;;;;;;7335439;19;112289;-86
2022/12/28 04:03:34;;;;;;;;;;;10.00;99.90;;;;;;7331257;19;109154;-86
2022/12/28 04:06:01;;;;;;;;;;;9.90;99.90;;;;;;7336826;19;109794;-86
2022/12/28 04:08:29;;;;;;;;;;;9.90;99.90;;;;;;7341616;19;110507;-86
2022/12/28 04:10:57;;;;;;;;;;;9.90;99.90;;;;;;7336493;19;109013;-86
2022/12/28 04:13:27;;;;;;;;;;;9.80;99.90;;;;;;7336727;19;112422;-86
2022/12/28 04:15:55;;;;;;;;;;;9.80;99.90;;;;;;7339788;19;109801;-85
2022/12/28 04:18:22;;;;;;;;;;;9.80;99.90;;;;;;7339916;19;108679;-86
2022/12/28 04:20:49;;;;;;;;;;;9.80;99.90;;;;;;7338799;19;110665;-85
2022/12/28 04:23:16;;;;;;;;;;;9.80;99.90;;;;;;7338439;19;109722;-85
2022/12/28 04:25:43;;;;;;;;;;;9.80;99.90;;;;;;7340028;19;110265;-86
2022/12/28 04:28:10;;;;;;;;;;;9.80;99.90;;;;;;7337533;19;113923;-87
2022/12/28 04:30:36;;;;;;;;;;;9.80;99.90;;;;;;7342802;19;110957;-86
2022/12/28 04:33:03;;;;;;;;;;;9.80;99.90;;;;;;7336035;19;110439;-86
2022/12/28 04:35:31;;;;;;;;;;;9.80;99.90;;;;;;7335775;19;109326;-86
2022/12/28 04:37:58;;;;;;;;;;;9.80;99.90;;;;;;7337165;19;110687;-87
2022/12/28 04:40:24;;;;;;;;;;;9.90;99.90;;;;;;7338630;19;110687;-87
2022/12/28 04:42:51;;;;;;;;;;;9.90;99.90;;;;;;7338964;19;108780;-87
2022/12/28 04:45:18;;;;;;;;;;;9.90;99.90;;;;;;7334648;19;108790;-85
2022/12/28 04:47:48;;;;;;;;;;;9.90;99.90;;;;;;7338828;19;110585;-85
2022/12/28 04:50:14;;;;;;;;;;;9.90;99.90;;;;;;7335833;19;110779;-85
2022/12/28 04:52:42;;;;;;;;;;;9.90;99.90;;;;;;7343241;19;109287;-86
2022/12/28 04:55:09;;;;;;;;;;;9.90;99.90;;;;;;7338456;19;108983;-86
2022/12/28 04:57:56;;;;;;;;;;;10.00;99.90;;;;;;7338615;19;111792;-86
2022/12/28 05:00:22;;;;;;;;;;;10.00;99.90;;;;;;7334281;19;113596;-86
2022/12/28 05:02:49;;;;;;;;;;;9.90;99.90;;;;;;7336375;19;110238;-86
2022/12/28 05:05:17;;;;;;;;;;;9.90;99.90;;;;;;7338979;19;109495;-86
2022/12/28 05:07:44;;;;;;;;;;;10.00;99.90;;;;;;7337749;19;110414;-87
2022/12/28 05:10:11;;;;;;;;;;;9.90;99.90;;;;;;7336073;19;108976;-86
2022/12/28 05:12:38;;;;;;;;;;;9.90;99.90;;;;;;7337800;19;110224;-86
2022/12/28 05:15:05;;;;;;;;;;;10.00;99.90;;;;;;7339027;19;111154;-86
2022/12/28 05:17:32;;;;;;;;;;;10.00;99.90;;;;;;7336674;19;108991;-86
2022/12/28 05:19:59;;;;;;;;;;;10.00;99.90;;;;;;7334984;19;110373;-85
2022/12/28 05:22:26;;;;;;;;;;;10.00;99.90;;;;;;7337580;19;109665;-86
2022/12/28 05:24:53;;;;;;;;;;;10.00;99.90;;;;;;7334772;19;109119;-86
2022/12/28 05:27:20;;;;;;;;;;;10.00;99.90;;;;;;7335699;19;110373;-86
2022/12/28 05:29:47;;;;;;;;;;;10.00;99.90;;;;;;7335891;19;109953;-86
2022/12/28 05:32:14;;;;;;;;;;;10.00;99.90;;;;;;7336745;19;109759;-86
2022/12/28 05:34:41;;;;;;;;;;;10.00;99.90;;;;;;7337734;19;109630;-85
2022/12/28 05:37:08;;;;;;;;;;;10.00;99.90;;;;;;7343030;19;109734;-86
2022/12/28 05:39:35;;;;;;;;;;;10.10;99.90;;;;;;7333155;19;112830;-85
2022/12/28 05:42:02;;;;;;;;;;;10.00;99.90;;;;;;7336940;19;109352;-86
2022/12/28 05:44:29;;;;;;;;;;;10.10;99.90;;;;;;7336812;19;109420;-85
2022/12/28 05:46:56;;;;;;;;;;;10.10;99.90;;;;;;7336846;19;110307;-85
2022/12/28 05:49:23;;;;;;;;;;;10.10;99.90;;;;;;7336298;19;109858;-85
2022/12/28 05:51:50;;;;;;;;;;;10.10;99.90;;;;;;7336105;19;109493;-85
2022/12/28 05:54:17;;;;;;;;;;;10.10;99.90;;;;;;7336817;19;111421;-86
2022/12/28 05:56:44;;;;;;;;;;;10.10;99.90;;;;;;7335040;19;108650;-86
2022/12/28 05:59:12;;;;;;;;;;;10.10;99.90;;;;;;7340867;19;108829;-85
2022/12/28 06:01:41;;;;;;;;;;;10.10;99.90;;;;;;7335782;19;109863;-86
2022/12/28 06:04:19;;;;;;;;;;;10.10;99.90;;;;;;7337202;19;109140;-85
2022/12/28 06:06:46;;;;;;;;;;;10.20;99.90;;;;;;7335582;19;110660;-85
2022/12/28 06:09:13;;;;;;;;;;;10.20;99.90;;;;;;7334609;19;108368;-85
2022/12/28 06:11:40;;;;;;;;;;;10.20;99.90;;;;;;7335786;19;109591;-86
2022/12/28 06:14:07;;;;;;;;;;;10.20;99.90;;;;;;7335740;19;109787;-85
2022/12/28 06:16:36;;;;;;;;;;;10.20;99.90;;;;;;7336032;19;108593;-85
2022/12/28 06:19:04;;;;;;;;;;;10.20;99.90;;;;;;7340648;19;109784;-85
2022/12/28 06:21:32;;;;;;;;;;;10.20;99.90;;;;;;7334609;19;109398;-85
2022/12/28 06:23:59;;;;;;;;;;;10.20;99.90;;;;;;7335976;19;110372;-86
2022/12/28 06:26:27;;;;;;;;;;;10.20;99.90;;;;;;7332239;19;109840;-86
2022/12/28 06:28:54;;;;;;;;;;;10.20;99.90;;;;;;7326402;19;109872;-86
2022/12/28 06:31:23;;;;;;;;;;;10.20;99.90;;;;;;7333430;19;114228;-86
2022/12/28 06:33:55;;;;;;;;;;;10.30;99.90;;;;;;7332662;19;110230;-86
2022/12/28 06:36:24;;;;;;;;;;;10.30;99.90;;;;;;7334209;19;109532;-86
2022/12/28 06:38:52;;;;;;;;;;;10.20;99.90;;;;;;7333262;19;108159;-85
2022/12/28 06:41:19;;;;;;;;;;;10.30;99.90;;;;;;7340031;19;113539;-86
2022/12/28 06:43:47;;;;;;;;;;;10.20;99.90;;;;;;7333184;19;108730;-86
2022/12/28 06:46:14;;;;;;;;;;;10.20;99.90;;;;;;7331943;19;111168;-86
2022/12/28 06:48:41;;;;;;;;;;;10.20;99.90;;;;;;7333041;19;109709;-85
2022/12/28 06:51:16;;;;;;;;;;;10.20;99.90;;;;;;7333371;19;110063;-86
2022/12/28 06:53:43;;;;;;;;;;;10.20;99.90;;;;;;7333000;19;110046;-85
2022/12/28 06:56:11;;;;;;;;;;;10.20;99.90;;;;;;7333335;19;108606;-84
2022/12/28 06:58:38;;;;;;;;;;;10.20;99.90;;;;;;7333207;19;112699;-84
2022/12/28 07:01:10;;;;;;;;;;;10.20;99.90;;;;;;7334002;19;110232;-85
2022/12/28 07:03:37;;;;;;;;;;;10.20;99.90;;;;;;7338719;19;109556;-85
2022/12/28 07:06:05;;;;;;;;;;;10.20;99.90;;;;;;7333944;19;110852;-84
2022/12/28 07:08:32;;;;;;;;;;;10.20;99.90;;;;;;7331292;19;108603;-85
2022/12/28 07:11:10;;;;;;;;;;;10.20;99.90;;;;;;7333154;19;109174;-85
2022/12/28 07:13:37;;;;;;;;;;;10.20;99.90;;;;;;7331667;19;110680;-85
2022/12/28 07:16:06;;;;;;;;;;;10.20;99.90;;;;;;7333476;19;108503;-85
2022/12/28 07:18:33;;;;;;;;;;;10.20;99.90;;;;;;7333560;19;110010;-85
2022/12/28 07:21:01;;;;;;;;;;;10.20;99.90;;;;;;7330804;19;110262;-85
2022/12/28 07:23:30;;;;;;;;;;;10.30;99.90;;;;;;7333444;19;109121;-85
2022/12/28 07:26:02;;;;;;;;;;;10.20;99.90;;;;;;7337640;19;108973;-85
2022/12/28 07:28:29;;;;;;;;;;;10.20;99.90;;;;;;7333090;19;109182;-85
2022/12/28 07:30:55;;;;;;;;;;;10.30;99.90;;;;;;7332847;19;110911;-85
2022/12/28 07:33:22;;;;;;;;;;;10.20;99.90;;;;;;7332457;19;110327;-85
2022/12/28 07:35:49;;;;;;;;;;;10.30;99.90;;;;;;7335136;19;108765;-85
2022/12/28 07:38:16;;;;;;;;;;;10.30;99.90;;;;;;7336395;19;109649;-84
2022/12/28 07:40:47;;;;;;;;;;;10.30;99.90;;;;;;7340444;19;110336;-85
2022/12/28 07:43:14;;;;;;;;;;;10.30;99.90;;;;;;7339330;19;109031;-85
2022/12/28 07:45:41;;;;;;;;;;;10.30;99.90;;;;;;7339558;19;109154;-85
2022/12/28 07:48:07;;;;;;;;;;;10.40;99.90;;;;;;7345455;19;110986;-85
2022/12/28 07:50:34;;;;;;;;;;;10.40;99.90;;;;;;7338463;19;109321;-85
2022/12/28 07:53:03;;;;;;;;;;;10.40;99.90;;;;;;7336986;19;110365;-84
2022/12/28 07:55:30;;;;;;;;;;;10.40;99.90;;;;;;7337569;19;109833;-84
2022/12/28 07:57:59;;;;;;;;;;;10.40;99.90;;;;;;7340053;19;109705;-84
2022/12/28 08:00:26;;;;;;;;;;;10.50;99.90;;;;;;7338544;19;111079;-84
2022/12/28 08:02:54;;;;;;;;;;;10.40;99.90;;;;;;7339953;19;109566;-85
2022/12/28 08:05:21;;;;;;;;;;;10.40;99.90;;;;;;7338859;19;109458;-84
2022/12/28 08:07:47;;;;;;;;;;;10.50;99.90;;;;;;7336685;19;110163;-84
2022/12/28 08:10:14;;;;;;;;;;;10.50;99.90;;;;;;7343372;19;108907;-84
2022/12/28 08:12:41;;;;;;;;;;;10.50;99.90;;;;;;7338329;19;110402;-84
2022/12/28 08:15:08;;;;;;;;;;;10.50;99.90;;;;;;7339750;19;108410;-85
2022/12/28 08:17:35;;;;;;;;;;;10.50;99.90;;;;;;7338735;19;109746;-85
2022/12/28 08:20:02;;;;;;;;;;;10.50;99.90;;;;;;7339172;19;112918;-85
2022/12/28 08:22:29;;;;;;;;;;;10.60;99.90;;;;;;7335774;19;109478;-85
2022/12/28 08:24:56;;;;;;;;;;;10.50;99.90;;;;;;7336534;19;109762;-85
2022/12/28 08:27:23;;;;;;;;;;;10.60;99.90;;;;;;7336199;19;110296;-84
2022/12/28 08:29:50;;;;;;;;;;;10.60;99.90;;;;;;7344771;19;108734;-85
2022/12/28 08:32:17;;;;;;;;;;;10.60;99.90;;;;;;7336953;19;111273;-85
2022/12/28 08:34:44;;;;;;;;;;;10.60;99.90;;;;;;7336515;19;108942;-84
2022/12/28 08:37:10;;;;;;;;;;;10.60;99.90;;;;;;7339147;19;109806;-84
2022/12/28 08:39:37;;;;;;;;;;;10.60;99.90;;;;;;7338549;19;114212;-85
2022/12/28 08:42:04;;;;;;;;;;;10.60;99.90;;;;;;7337680;19;108311;-84
2022/12/28 08:44:31;;;;;;;;;;;10.60;99.90;;;;;;7336890;19;108637;-84
2022/12/28 08:46:58;;;;;;;;;;;10.60;99.90;;;;;;7338444;19;110064;-84
2022/12/28 08:49:25;;;;;;;;;;;10.60;99.90;;;;;;7336205;19;109512;-84
2022/12/28 08:51:52;;;;;;;;;;;10.60;99.90;;;;;;7343507;19;109361;-84
2022/12/28 08:54:19;;;;;;;;;;;10.60;99.90;;;;;;7338587;19;108358;-84
2022/12/28 08:56:46;;;;;;;;;;;10.60;99.90;;;;;;7338463;19;109323;-84
2022/12/28 08:59:14;;;;;;;;;;;10.60;99.90;;;;;;7338049;19;110860;-84
2022/12/28 09:01:41;;;;;;;;;;;10.60;99.90;;;;;;7336461;19;109479;-84
2022/12/28 09:04:13;;;;;;;;;;;10.60;99.90;;;;;;7337799;19;109117;-84
2022/12/28 09:06:40;;;;;;;;;;;10.60;99.90;;;;;;7336537;19;113131;-84
2022/12/28 09:09:09;;;;;;;;;;;10.70;99.90;;;;;;7336946;19;108417;-84
2022/12/28 09:11:36;;;;;;;;;;;10.60;99.90;;;;;;7333851;19;113125;-84
2022/12/28 09:14:05;;;;;;;;;;;10.60;99.90;;;;;;7341905;19;110240;-84
2022/12/28 09:16:32;;;;;;;;;;;10.60;99.90;;;;;;7334303;19;109319;-84
2022/12/28 09:19:00;;;;;;;;;;;10.60;99.90;;;;;;7338300;19;110471;-85
2022/12/28 09:21:29;;;;;;;;;;;10.60;99.90;;;;;;7337449;19;108764;-84
2022/12/28 09:23:56;;;;;;;;;;;10.60;99.90;;;;;;7341491;19;109289;-84
2022/12/28 09:26:24;;;;;;;;;;;10.60;99.90;;;;;;7340192;19;115606;-85
2022/12/28 09:28:52;;;;;;;;;;;10.60;99.90;;;;;;7337391;19;109129;-85
2022/12/28 09:31:20;;;;;;;;;;;10.60;99.90;;;;;;7336832;19;109108;-84
2022/12/28 09:34:00;;;;;;;;;;;10.60;99.90;;;;;;7336741;19;110557;-84
2022/12/28 09:36:47;;;;;;;;;;;10.60;99.90;;;;;;7341805;19;109376;-84
2022/12/28 09:39:16;;;;;;;;;;;10.70;99.90;;;;;;7337870;19;110490;-83
2022/12/28 09:41:47;;;;;;;;;;;10.70;99.90;;;;;;7336277;19;108577;-84
2022/12/28 09:44:25;;;;;;;;;;;10.60;99.90;;;;;;7338967;19;111759;-85
2022/12/28 09:46:56;;;;;;;;;;;10.70;99.90;;;;;;7338952;19;115065;-85
2022/12/28 09:49:28;;;;;;;;;;;10.60;99.90;;;;;;7335132;19;108648;-85
2022/12/28 09:51:59;;;;;;;;;;;10.70;99.90;;;;;;7336387;19;112327;-84
2022/12/28 09:54:26;;;;;;;;;;;10.60;99.90;;;;;;7336762;19;108973;-85
2022/12/28 09:56:53;;;;;;;;;;;10.70;99.90;;;;;;7339913;19;108417;-85
2022/12/28 09:59:21;;;;;;;;;;;10.70;99.90;;;;;;7339629;19;109387;-84
2022/12/28 10:01:59;;;;;;;;;;;10.70;99.90;;;;;;7334759;19;109010;-85
2022/12/28 10:04:26;;;;;;;;;;;10.70;99.90;;;;;;7336645;19;109250;-85
2022/12/28 10:06:53;;;;;;;;;;;10.70;99.90;;;;;;7340500;19;110552;-85
2022/12/28 10:09:28;;;;;;;;;;;10.70;99.90;;;;;;7336501;19;108401;-85
2022/12/28 10:11:56;;;;;;;;;;;10.80;99.90;;;;;;7334290;19;109567;-84
2022/12/28 10:14:29;;;;;;;;;;;10.70;99.90;;;;;;7333726;19;110848;-85
2022/12/28 10:16:56;;;;;;;;;;;10.80;99.90;;;;;;7335468;19;109876;-85
2022/12/28 10:19:23;;;;;;;;;;;10.70;99.90;;;;;;7345458;19;112400;-84
2022/12/28 10:22:01;;;;;;;;;;;10.80;99.90;;;;;;7341039;19;108782;-85
2022/12/28 10:24:28;;;;;;;;;;;10.80;99.90;;;;;;7335514;19;109629;-85
2022/12/28 10:26:59;;;;;;;;;;;10.80;99.90;;;;;;7337420;19;110290;-85
2022/12/28 10:29:26;;;;;;;;;;;10.80;99.90;;;;;;7333922;19;108734;-84
2022/12/28 10:32:05;;;;;;;;;;;10.80;99.90;;;;;;7336027;19;109319;-84
2022/12/28 10:34:33;;;;;;;;;;;10.80;99.90;;;;;;7332343;19;110270;-85
2022/12/28 10:37:06;;;;;;;;;;;10.80;99.90;;;;;;7336063;19;108689;-85
2022/12/28 10:39:46;;;;;;;;;;;10.80;99.90;;;;;;7335143;19;109546;-86
2022/12/28 10:42:20;;;;;;;;;;;10.80;99.90;;;;;;7337676;19;111284;-85
2022/12/28 10:44:48;;;;;;;;;;;10.80;99.90;;;;;;7334693;19;109206;-86
2022/12/28 10:47:16;;;;;;;;;;;10.80;99.90;;;;;;7335071;19;110742;-85
2022/12/28 10:49:50;;;;;;;;;;;10.80;99.90;;;;;;7335917;19;108759;-86
2022/12/28 10:52:37;;;;;;;;;;;10.80;99.90;;;;;;7338065;19;111448;-86
2022/12/28 10:55:24;;;;;;;;;;;10.80;99.90;;;;;;7332910;19;113247;-85
2022/12/28 10:57:51;;;;;;;;;;;10.90;99.90;;;;;;7338045;19;109133;-85
2022/12/28 11:00:37;;;;;;;;;;;10.80;99.90;;;;;;7335783;19;113073;-85
2022/12/28 11:03:26;;;;;;;;;;;10.90;99.90;;;;;;7333163;19;111176;-85
2022/12/28 11:06:11;;;;;;;;;;;10.90;99.90;;;;;;7339032;19;110322;-85
2022/12/28 11:08:39;;;;;;;;;;;10.90;99.90;;;;;;7333107;19;111337;-85
2022/12/28 11:11:15;;;;;;;;;;;10.90;99.90;;;;;;7334102;19;109242;-85
2022/12/28 11:13:44;;;;;;;;;;;10.90;99.90;;;;;;7335755;19;109563;-86
2022/12/28 11:16:12;;;;;;;;;;;11.00;99.90;;;;;;7339727;19;110285;-86
2022/12/28 11:18:39;;;;;;;;;;;10.90;99.90;;;;;;7342509;19;109139;-85
2022/12/28 11:21:10;;;;;;;;;;;10.90;99.90;;;;;;7340603;19;110545;-84
2022/12/28 11:23:37;;;;;;;;;;;10.90;99.90;;;;;;7338763;19;113319;-85
2022/12/28 11:26:08;;;;;;;;;;;10.90;99.90;;;;;;7339613;19;110658;-85
2022/12/28 11:28:35;;;;;;;;;;;10.90;99.90;;;;;;7345542;19;109309;-84
2022/12/28 11:31:02;;;;;;;;;;;10.90;99.90;;;;;;7343032;19;108740;-85
2022/12/28 11:33:38;;;;;;;;;;;11.00;99.90;;;;;;7340575;19;109597;-85
2022/12/28 11:36:09;;;;;;;;;;;11.00;99.90;;;;;;7340179;19;110104;-85
2022/12/28 11:38:37;;;;;;;;;;;11.00;99.90;;;;;;7346208;19;108870;-85
2022/12/28 11:41:04;;;;;;;;;;;11.00;99.90;;;;;;7347889;19;109132;-85
2022/12/28 11:43:38;;;;;;;;;;;11.00;99.90;;;;;;7346105;19;110450;-85
2022/12/28 11:46:20;;;;;;;;;;;11.10;99.90;;;;;;7348653;19;108844;-85
2022/12/28 11:48:56;;;;;;;;;;;11.10;99.90;;;;;;7348074;19;109387;-85
2022/12/28 11:51:24;;;;;;;;;;;11.10;99.90;;;;;;7351892;19;110444;-85
2022/12/28 11:53:56;;;;;;;;;;;11.10;99.90;;;;;;7348379;19;109219;-85
2022/12/28 11:56:27;;;;;;;;;;;11.10;99.90;;;;;;7345695;19;109631;-85
2022/12/28 11:58:57;;;;;;;;;;;11.10;99.90;;;;;;7347318;19;108331;-84
2022/12/28 12:01:27;;;;;;;;;;;11.10;99.90;;;;;;7345296;19;109657;-85
2022/12/28 12:03:57;;;;;;;;;;;11.10;99.90;;;;;;7340561;19;110134;-85
2022/12/28 12:06:42;;;;;;;;;;;11.10;99.90;;;;;;7341008;19;108438;-86
2022/12/28 12:09:24;;;;;;;;;;;11.10;99.90;;;;;;7342439;19;109452;-86
2022/12/28 12:11:52;;;;;;;;;;;11.10;99.90;;;;;;7340293;19;111148;-85
2022/12/28 12:14:51;;;;;;;;;;;11.10;99.90;;;;;;7345076;19;109792;-85
2022/12/28 12:17:31;;;;;;;;;;;11.10;99.90;;;;;;7336395;19;110624;-85
2022/12/28 12:20:13;;;;;;;;;;;11.20;99.90;;;;;;7340526;19;108572;-85
2022/12/28 12:22:45;;;;;;;;;;;11.20;99.90;;;;;;7339705;19;109215;-85
2022/12/28 12:25:31;;;;;;;;;;;11.20;99.90;;;;;;7337462;19;110315;-86
2022/12/28 12:28:05;;;;;;;;;;;11.20;99.90;;;;;;7339952;19;110081;-85
2022/12/28 12:30:32;;;;;;;;;;;11.20;99.90;;;;;;7338869;19;110196;-85
2022/12/28 12:33:04;;;;;;;;;;;11.20;99.90;;;;;;7339104;19;111346;-85
2022/12/28 12:35:45;;;;;;;;;;;11.20;99.90;;;;;;7345539;19;108955;-85
2022/12/28 12:38:11;;;;;;;;;;;11.20;99.90;;;;;;7340308;19;110273;-85
2022/12/28 12:41:02;;;;;;;;;;;11.20;99.90;;;;;;7340679;19;111860;-85
2022/12/28 12:43:41;;;;;;;;;;;11.20;99.90;;;;;;7334027;19;109341;-86
2022/12/28 12:46:26;;;;;;;;;;;11.20;99.90;;;;;;7334842;19;111152;-85
2022/12/28 12:49:04;;;;;;;;;;;11.20;99.90;;;;;;7335885;19;109176;-85
2022/12/28 12:51:37;;;;;;;;;;;11.20;99.90;;;;;;7338110;19;109180;-85
2022/12/28 12:54:06;;;;;;;;;;;11.20;99.90;;;;;;7338401;19;110831;-86
2022/12/28 12:56:33;;;;;;;;;;;11.20;99.90;;;;;;7336452;19;108811;-85
2022/12/28 12:59:02;;;;;;;;;;;11.20;99.90;;;;;;7343034;19;108910;-86
2022/12/28 13:01:38;;;;;;;;;;;11.20;99.90;;;;;;7338885;19;109608;-86
2022/12/28 13:04:07;;;;;;;;;;;11.20;99.90;;;;;;7334006;19;110888;-86
2022/12/28 13:06:34;;;;;;;;;;;11.30;99.90;;;;;;7336280;19;108956;-88
2022/12/28 13:09:02;;;;;;;;;;;11.30;99.90;;;;;;7336021;19;109209;-85
2022/12/28 13:11:35;;;;;;;;;;;11.30;99.90;;;;;;7334948;19;110481;-85
2022/12/28 13:14:01;;;;;;;;;;;11.20;99.90;;;;;;7341406;19;109123;-87
2022/12/28 13:16:30;;;;;;;;;;;11.30;99.90;;;;;;7333022;19;109152;-87
2022/12/28 13:19:04;;;;;;;;;;;11.20;99.90;;;;;;7339737;19;109042;-87
2022/12/28 13:21:41;;;;;;;;;;;11.20;99.90;;;;;;7351998;19;110962;-87
2022/12/28 13:24:24;;;;;;;;;;;11.30;99.90;;;;;;7345637;19;109568;-87
2022/12/28 13:26:51;;;;;;;;;;;11.30;99.90;;;;;;7346907;19;109302;-86
2022/12/28 13:29:22;;;;;;;;;;;11.40;99.90;;;;;;7346338;19;108429;-87
2022/12/28 13:31:50;;;;;;;;;;;11.40;99.90;;;;;;7346697;19;108688;-87
2022/12/28 13:34:24;;;;;;;;;;;11.40;99.90;;;;;;7345083;19;110472;-87
2022/12/28 13:36:53;;;;;;;;;;;11.50;99.90;;;;;;7348179;19;108381;-87
2022/12/28 13:39:20;;;;;;;;;;;11.50;99.90;;;;;;7347434;19;109820;-87
2022/12/28 13:41:49;;;;;;;;;;;11.50;99.90;;;;;;7349668;19;110927;-86
2022/12/28 13:44:38;;;;;;;;;;;11.50;99.90;;;;;;7343343;19;109765;-86
2022/12/28 13:47:11;;;;;;;;;;;11.50;99.90;;;;;;7343152;19;112970;-86
2022/12/28 13:49:48;;;;;;;;;;;11.60;99.90;;;;;;7346738;19;108723;-87
2022/12/28 13:52:18;;;;;;;;;;;11.60;99.90;;;;;;7344669;19;108632;-87
2022/12/28 13:54:48;;;;;;;;;;;11.60;99.90;;;;;;7345398;19;113369;-87
2022/12/28 13:57:15;;;;;;;;;;;11.50;99.90;;;;;;7343684;19;108441;-87
2022/12/28 14:00:03;;;;;;;;;;;11.60;99.90;;;;;;7347473;19;109691;-87
2022/12/28 14:02:31;;;;;;;;;;;11.60;99.90;;;;;;7343128;19;113226;-87
2022/12/28 14:04:58;;;;;;;;;;;11.60;99.90;;;;;;7344667;19;109383;-87
2022/12/28 14:07:27;;;;;;;;;;;11.70;99.90;;;;;;7351565;19;109137;-87
2022/12/28 14:09:55;;;;;;;;;;;11.70;99.90;;;;;;7346616;19;109071;-86
2022/12/28 14:12:22;;;;;;;;;;;11.70;99.90;;;;;;7345643;19;109592;-87
2022/12/28 14:14:49;;;;;;;;;;;11.70;99.90;;;;;;7345971;19;110716;-86
2022/12/28 14:17:16;;;;;;;;;;;11.80;99.90;;;;;;7346216;19;108347;-86
2022/12/28 14:19:43;;;;;;;;;;;11.70;99.90;;;;;;7346661;19;109213;-87
2022/12/28 14:22:28;;;;;;;;;;;11.70;99.90;;;;;;7346868;19;110078;-87
2022/12/28 14:24:58;;;;;;;;;;;11.70;99.90;;;;;;7345675;19;108386;-87
2022/12/28 14:27:25;;;;;;;;;;;11.70;99.90;;;;;;7345837;19;114138;-87
2022/12/28 14:29:53;;;;;;;;;;;11.70;99.90;;;;;;7351874;19;110035;-87
2022/12/28 14:32:20;;;;;;;;;;;11.70;99.90;;;;;;7344272;19;111674;-88
2022/12/28 14:34:47;;;;;;;;;;;11.60;99.90;;;;;;7345474;19;110444;-86
2022/12/28 14:37:26;;;;;;;;;;;11.60;99.90;;;;;;7344908;19;108997;-87
2022/12/28 14:39:56;;;;;;;;;;;11.60;99.90;;;;;;7343251;19;109266;-87
2022/12/28 14:42:24;;;;;;;;;;;11.70;99.90;;;;;;7344710;19;110377;-86
2022/12/28 14:44:51;;;;;;;;;;;11.70;99.90;;;;;;7346566;19;109072;-87
2022/12/28 14:47:35;;;;;;;;;;;11.60;99.90;;;;;;7345021;19;108955;-86
2022/12/28 14:50:12;;;;;;;;;;;11.60;99.90;;;;;;7357010;19;109816;-86